sensor_id;sensor_type;location;lat;lon;timestamp;pressure;altitude;pressure_sealevel;temperature;humidity
46876;BME280;32866;50.160;14.768;2024-03-08T00:00:51;99908.06;;;-3.09;100.00
46876;BME280;32866;50.160;14.768;2024-03-08T00:03:17;99902.00;;;-3.19;100.00
46876;BME280;32866;50.160;14.768;2024-03-08T00:05:43;99872.44;;;-3.56;100.00
46876;BME280;32866;50.160;14.768;2024-03-08T00:08:09;99881.06;;;-3.50;100.00
46876;BME280;32866;50.160;14.768;2024-03-08T00:10:35;99847.53;;;-3.68;100.00
46876;BME280;32866;50.160;14.768;2024-03-08T00:13:01;99899.00;;;-3.29;100.00
46876;BME280;32866;50.160;14.768;2024-03-08T00:15:30;99889.78;;;-3.41;100.00
46876;BME280;32866;50.160;14.768;2024-03-08T00:17:58;99844.56;;;-3.88;100.00
46876;BME280;32866;50.160;14.768;2024-03-08T00:20:24;99894.47;;;-3.50;100.00
46876;BME280;32866;50.160;14.768;2024-03-08T00:22:50;99874.97;;;-3.71;100.00
46876;BME280;32866;50.160;14.768;2024-03-08T00:25:17;99874.31;;;-3.68;100.00
46876;BME280;32866;50.160;14.768;2024-03-08T00:27:44;99838.53;;;-3.85;100.00
46876;BME280;32866;50.160;14.768;2024-03-08T00:30:10;99877.75;;;-3.34;100.00
46876;BME280;32866;50.160;14.768;2024-03-08T00:32:38;99835.56;;;-3.71;100.00
46876;BME280;32866;50.160;14.768;2024-03-08T00:35:05;99881.81;;;-3.28;100.00
46876;BME280;32866;50.160;14.768;2024-03-08T00:37:33;99842.38;;;-3.74;100.00
46876;BME280;32866;50.160;14.768;2024-03-08T00:40:00;99811.75;;;-3.85;100.00
46876;BME280;32866;50.160;14.768;2024-03-08T00:42:26;99856.75;;;-3.78;100.00
46876;BME280;32866;50.160;14.768;2024-03-08T00:44:52;99892.44;;;-3.53;100.00
46876;BME280;32866;50.160;14.768;2024-03-08T00:47:18;99891.28;;;-3.64;100.00
46876;BME280;32866;50.160;14.768;2024-03-08T00:49:44;99888.41;;;-3.59;100.00
46876;BME280;32866;50.160;14.768;2024-03-08T00:52:10;99837.56;;;-3.80;100.00
46876;BME280;32866;50.160;14.768;2024-03-08T00:54:36;99880.41;;;-3.47;100.00
46876;BME280;32866;50.160;14.768;2024-03-08T00:57:03;99868.66;;;-3.55;100.00
46876;BME280;32866;50.160;14.768;2024-03-08T00:59:29;99875.44;;;-3.57;100.00
46876;BME280;32866;50.160;14.768;2024-03-08T01:02:01;99868.34;;;-3.86;100.00
46876;BME280;32866;50.160;14.768;2024-03-08T01:04:27;99876.53;;;-3.70;100.00
46876;BME280;32866;50.160;14.768;2024-03-08T01:06:56;99864.91;;;-3.75;100.00
46876;BME280;32866;50.160;14.768;2024-03-08T01:09:23;99870.72;;;-3.73;100.00
46876;BME280;32866;50.160;14.768;2024-03-08T01:11:49;99845.97;;;-3.69;100.00
46876;BME280;32866;50.160;14.768;2024-03-08T01:14:16;99873.94;;;-3.33;100.00
46876;BME280;32866;50.160;14.768;2024-03-08T01:16:42;99881.09;;;-3.38;100.00
46876;BME280;32866;50.160;14.768;2024-03-08T01:19:08;99813.16;;;-3.66;100.00
46876;BME280;32866;50.160;14.768;2024-03-08T01:21:34;99864.81;;;-3.32;100.00
46876;BME280;32866;50.160;14.768;2024-03-08T01:24:00;99835.47;;;-3.62;100.00
46876;BME280;32866;50.160;14.768;2024-03-08T01:26:26;99862.13;;;-3.32;100.00
46876;BME280;32866;50.160;14.768;2024-03-08T01:28:52;99836.41;;;-3.46;100.00
46876;BME280;32866;50.160;14.768;2024-03-08T01:31:18;99794.53;;;-3.50;100.00
46876;BME280;32866;50.160;14.768;2024-03-08T01:33:44;99816.56;;;-3.32;100.00
46876;BME280;32866;50.160;14.768;2024-03-08T01:36:10;99785.06;;;-3.23;100.00
46876;BME280;32866;50.160;14.768;2024-03-08T01:38:36;99845.50;;;-2.89;100.00
46876;BME280;32866;50.160;14.768;2024-03-08T01:41:02;99805.63;;;-3.15;100.00
46876;BME280;32866;50.160;14.768;2024-03-08T01:43:29;99815.44;;;-3.19;100.00
46876;BME280;32866;50.160;14.768;2024-03-08T01:45:57;99817.69;;;-3.21;100.00
46876;BME280;32866;50.160;14.768;2024-03-08T01:48:26;99790.66;;;-3.28;100.00
46876;BME280;32866;50.160;14.768;2024-03-08T01:50:54;99837.56;;;-2.97;100.00
46876;BME280;32866;50.160;14.768;2024-03-08T01:53:26;99847.63;;;-2.94;100.00
46876;BME280;32866;50.160;14.768;2024-03-08T01:55:56;99832.22;;;-2.97;100.00
46876;BME280;32866;50.160;14.768;2024-03-08T01:58:23;99834.22;;;-2.94;100.00
46876;BME280;32866;50.160;14.768;2024-03-08T02:00:50;99839.69;;;-2.91;100.00
46876;BME280;32866;50.160;14.768;2024-03-08T02:03:16;99840.03;;;-2.92;100.00
46876;BME280;32866;50.160;14.768;2024-03-08T02:05:42;99839.13;;;-2.84;100.00
46876;BME280;32866;50.160;14.768;2024-03-08T02:08:09;99836.22;;;-2.67;100.00
46876;BME280;32866;50.160;14.768;2024-03-08T02:10:40;99790.06;;;-2.97;100.00
46876;BME280;32866;50.160;14.768;2024-03-08T02:13:07;99827.63;;;-2.72;100.00
46876;BME280;32866;50.160;14.768;2024-03-08T02:15:56;99773.53;;;-3.24;100.00
46876;BME280;32866;50.160;14.768;2024-03-08T02:18:25;99785.50;;;-3.21;100.00
46876;BME280;32866;50.160;14.768;2024-03-08T02:20:52;99839.38;;;-2.89;100.00
46876;BME280;32866;50.160;14.768;2024-03-08T02:23:19;99767.84;;;-3.22;100.00
46876;BME280;32866;50.160;14.768;2024-03-08T02:25:46;99822.38;;;-2.81;100.00
46876;BME280;32866;50.160;14.768;2024-03-08T02:28:12;99785.28;;;-3.28;100.00
46876;BME280;32866;50.160;14.768;2024-03-08T02:30:38;99771.75;;;-3.32;100.00
46876;BME280;32866;50.160;14.768;2024-03-08T02:33:05;99830.88;;;-2.91;100.00
46876;BME280;32866;50.160;14.768;2024-03-08T02:35:32;99820.47;;;-2.81;100.00
46876;BME280;32866;50.160;14.768;2024-03-08T02:37:59;99813.53;;;-2.82;100.00
46876;BME280;32866;50.160;14.768;2024-03-08T02:40:25;99797.91;;;-3.04;100.00
46876;BME280;32866;50.160;14.768;2024-03-08T02:42:51;99815.44;;;-2.70;100.00
46876;BME280;32866;50.160;14.768;2024-03-08T02:45:18;99818.00;;;-2.61;100.00
46876;BME280;32866;50.160;14.768;2024-03-08T02:47:44;99811.94;;;-2.58;100.00
46876;BME280;32866;50.160;14.768;2024-03-08T02:50:11;99810.66;;;-2.48;100.00
46876;BME280;32866;50.160;14.768;2024-03-08T02:52:37;99768.59;;;-2.72;100.00
46876;BME280;32866;50.160;14.768;2024-03-08T02:55:03;99771.38;;;-2.69;100.00
46876;BME280;32866;50.160;14.768;2024-03-08T02:57:32;99811.53;;;-2.32;100.00
46876;BME280;32866;50.160;14.768;2024-03-08T02:59:58;99775.34;;;-2.50;100.00
46876;BME280;32866;50.160;14.768;2024-03-08T03:02:25;99808.56;;;-2.14;100.00
46876;BME280;32866;50.160;14.768;2024-03-08T03:04:53;99803.41;;;-2.07;100.00
46876;BME280;32866;50.160;14.768;2024-03-08T03:07:21;99804.50;;;-2.08;100.00
46876;BME280;32866;50.160;14.768;2024-03-08T03:09:47;99757.69;;;-2.51;100.00
46876;BME280;32866;50.160;14.768;2024-03-08T03:12:13;99782.28;;;-2.49;100.00
46876;BME280;32866;50.160;14.768;2024-03-08T03:14:39;99805.06;;;-2.31;100.00
46876;BME280;32866;50.160;14.768;2024-03-08T03:17:05;99804.50;;;-2.36;100.00
46876;BME280;32866;50.160;14.768;2024-03-08T03:19:31;99808.56;;;-2.43;100.00
46876;BME280;32866;50.160;14.768;2024-03-08T03:21:57;99761.47;;;-2.93;100.00
46876;BME280;32866;50.160;14.768;2024-03-08T03:24:23;99776.53;;;-2.76;100.00
46876;BME280;32866;50.160;14.768;2024-03-08T03:26:49;99789.81;;;-2.67;100.00
46876;BME280;32866;50.160;14.768;2024-03-08T03:29:16;99795.06;;;-2.71;100.00
46876;BME280;32866;50.160;14.768;2024-03-08T03:31:43;99812.75;;;-2.82;100.00
46876;BME280;32866;50.160;14.768;2024-03-08T03:34:12;99789.19;;;-2.76;100.00
46876;BME280;32866;50.160;14.768;2024-03-08T03:36:38;99764.81;;;-2.96;100.00
46876;BME280;32866;50.160;14.768;2024-03-08T03:39:10;99726.84;;;-3.10;100.00
46876;BME280;32866;50.160;14.768;2024-03-08T03:41:38;99715.25;;;-3.14;100.00
46876;BME280;32866;50.160;14.768;2024-03-08T03:44:05;99792.78;;;-2.56;100.00
46876;BME280;32866;50.160;14.768;2024-03-08T03:46:33;99790.56;;;-2.54;100.00
46876;BME280;32866;50.160;14.768;2024-03-08T03:48:59;99786.41;;;-2.52;100.00
46876;BME280;32866;50.160;14.768;2024-03-08T03:51:25;99763.88;;;-2.63;100.00
46876;BME280;32866;50.160;14.768;2024-03-08T03:53:51;99757.06;;;-2.73;100.00
46876;BME280;32866;50.160;14.768;2024-03-08T03:56:18;99785.94;;;-2.42;100.00
46876;BME280;32866;50.160;14.768;2024-03-08T03:58:45;99798.50;;;-2.46;100.00
46876;BME280;32866;50.160;14.768;2024-03-08T04:01:11;99726.47;;;-2.84;100.00
46876;BME280;32866;50.160;14.768;2024-03-08T04:03:37;99790.88;;;-2.44;100.00
46876;BME280;32866;50.160;14.768;2024-03-08T04:06:06;99740.41;;;-2.78;100.00
46876;BME280;32866;50.160;14.768;2024-03-08T04:08:32;99782.09;;;-2.28;100.00
46876;BME280;32866;50.160;14.768;2024-03-08T04:11:00;99789.81;;;-2.27;100.00
46876;BME280;32866;50.160;14.768;2024-03-08T04:13:26;99765.78;;;-2.35;100.00
46876;BME280;32866;50.160;14.768;2024-03-08T04:15:53;99735.63;;;-2.73;100.00
46876;BME280;32866;50.160;14.768;2024-03-08T04:18:19;99768.31;;;-2.27;100.00
46876;BME280;32866;50.160;14.768;2024-03-08T04:20:45;99780.81;;;-2.18;100.00
46876;BME280;32866;50.160;14.768;2024-03-08T04:23:11;99744.75;;;-2.33;100.00
46876;BME280;32866;50.160;14.768;2024-03-08T04:25:37;99751.03;;;-2.13;100.00
46876;BME280;32866;50.160;14.768;2024-03-08T04:28:03;99771.84;;;-2.10;100.00
46876;BME280;32866;50.160;14.768;2024-03-08T04:30:29;99777.69;;;-1.92;100.00
46876;BME280;32866;50.160;14.768;2024-03-08T04:32:55;99770.66;;;-1.97;100.00
46876;BME280;32866;50.160;14.768;2024-03-08T04:35:21;99716.47;;;-2.43;100.00
46876;BME280;32866;50.160;14.768;2024-03-08T04:37:47;99716.28;;;-2.50;100.00
46876;BME280;32866;50.160;14.768;2024-03-08T04:40:13;99730.41;;;-2.53;100.00
46876;BME280;32866;50.160;14.768;2024-03-08T04:42:40;99770.09;;;-2.18;100.00
46876;BME280;32866;50.160;14.768;2024-03-08T04:45:08;99773.91;;;-2.19;100.00
46876;BME280;32866;50.160;14.768;2024-03-08T04:47:36;99754.47;;;-2.29;100.00
46876;BME280;32866;50.160;14.768;2024-03-08T04:50:02;99766.31;;;-2.30;100.00
46876;BME280;32866;50.160;14.768;2024-03-08T04:52:30;99727.94;;;-2.58;100.00
46876;BME280;32866;50.160;14.768;2024-03-08T04:54:56;99765.78;;;-2.35;100.00
46876;BME280;32866;50.160;14.768;2024-03-08T04:57:22;99701.56;;;-2.85;100.00
46876;BME280;32866;50.160;14.768;2024-03-08T04:59:48;99764.38;;;-2.45;100.00
46876;BME280;32866;50.160;14.768;2024-03-08T05:02:14;99761.00;;;-2.42;100.00
46876;BME280;32866;50.160;14.768;2024-03-08T05:04:40;99700.41;;;-2.84;100.00
46876;BME280;32866;50.160;14.768;2024-03-08T05:07:08;99744.97;;;-2.67;100.00
46876;BME280;32866;50.160;14.768;2024-03-08T05:09:34;99730.06;;;-2.92;100.00
46876;BME280;32866;50.160;14.768;2024-03-08T05:12:01;99764.88;;;-2.68;100.00
46876;BME280;32866;50.160;14.768;2024-03-08T05:14:27;99764.88;;;-2.68;100.00
46876;BME280;32866;50.160;14.768;2024-03-08T05:16:53;99761.53;;;-2.77;100.00
46876;BME280;32866;50.160;14.768;2024-03-08T05:19:20;99769.06;;;-2.83;100.00
46876;BME280;32866;50.160;14.768;2024-03-08T05:21:47;99753.09;;;-2.91;100.00
46876;BME280;32866;50.160;14.768;2024-03-08T05:24:14;99709.53;;;-3.25;100.00
46876;BME280;32866;50.160;14.768;2024-03-08T05:26:43;99765.69;;;-2.92;100.00
46876;BME280;32866;50.160;14.768;2024-03-08T05:29:09;99750.66;;;-2.96;100.00
46876;BME280;32866;50.160;14.768;2024-03-08T05:31:48;99765.69;;;-2.80;100.00
46876;BME280;32866;50.160;14.768;2024-03-08T05:34:15;99748.97;;;-3.01;100.00
46876;BME280;32866;50.160;14.768;2024-03-08T05:36:41;99719.38;;;-3.17;100.00
46876;BME280;32866;50.160;14.768;2024-03-08T05:39:11;99715.59;;;-3.28;100.00
46876;BME280;32866;50.160;14.768;2024-03-08T05:41:38;99709.34;;;-3.45;100.00
46876;BME280;32866;50.160;14.768;2024-03-08T05:44:05;99748.19;;;-3.14;100.00
46876;BME280;32866;50.160;14.768;2024-03-08T05:46:31;99761.59;;;-3.02;100.00
46876;BME280;32866;50.160;14.768;2024-03-08T05:48:57;99738.13;;;-3.17;100.00
46876;BME280;32866;50.160;14.768;2024-03-08T05:51:25;99697.03;;;-3.33;100.00
46876;BME280;32866;50.160;14.768;2024-03-08T05:53:53;99760.44;;;-2.88;100.00
46876;BME280;32866;50.160;14.768;2024-03-08T05:56:22;99759.53;;;-2.80;100.00
46876;BME280;32866;50.160;14.768;2024-03-08T05:58:51;99733.00;;;-3.10;100.00
46876;BME280;32866;50.160;14.768;2024-03-08T06:01:17;99760.63;;;-2.69;100.00
46876;BME280;32866;50.160;14.768;2024-03-08T06:03:43;99757.72;;;-2.64;100.00
46876;BME280;32866;50.160;14.768;2024-03-08T06:06:14;99764.59;;;-2.50;100.00
46876;BME280;32866;50.160;14.768;2024-03-08T06:08:41;99733.53;;;-2.51;100.00
46876;BME280;32866;50.160;14.768;2024-03-08T06:11:09;99746.22;;;-2.36;100.00
46876;BME280;32866;50.160;14.768;2024-03-08T06:13:35;99747.81;;;-2.19;100.00
46876;BME280;32866;50.160;14.768;2024-03-08T06:16:01;99738.25;;;-2.04;100.00
46876;BME280;32866;50.160;14.768;2024-03-08T06:18:31;99769.13;;;-1.66;100.00
46876;BME280;32866;50.160;14.768;2024-03-08T06:20:57;99727.72;;;-1.81;100.00
46876;BME280;32866;50.160;14.768;2024-03-08T06:23:23;99759.72;;;-1.44;100.00
46876;BME280;32866;50.160;14.768;2024-03-08T06:25:49;99706.34;;;-1.58;100.00
46876;BME280;32866;50.160;14.768;2024-03-08T06:28:15;99767.56;;;-1.03;100.00
46876;BME280;32866;50.160;14.768;2024-03-08T06:30:41;99772.53;;;-0.86;100.00
46876;BME280;32866;50.160;14.768;2024-03-08T06:33:06;99752.34;;;-0.60;100.00
46876;BME280;32866;50.160;14.768;2024-03-08T06:35:32;99766.00;;;0.32;100.00
46876;BME280;32866;50.160;14.768;2024-03-08T06:37:58;99759.69;;;1.24;100.00
46876;BME280;32866;50.160;14.768;2024-03-08T06:40:24;99757.66;;;2.19;100.00
46876;BME280;32866;50.160;14.768;2024-03-08T06:42:50;99760.91;;;2.84;100.00
46876;BME280;32866;50.160;14.768;2024-03-08T06:45:17;99745.00;;;2.79;100.00
46876;BME280;32866;50.160;14.768;2024-03-08T06:47:47;99748.06;;;3.37;100.00
46876;BME280;32866;50.160;14.768;2024-03-08T06:50:13;99758.81;;;4.46;100.00
46876;BME280;32866;50.160;14.768;2024-03-08T06:52:41;99756.03;;;5.18;100.00
46876;BME280;32866;50.160;14.768;2024-03-08T06:55:12;99762.25;;;5.11;100.00
46876;BME280;32866;50.160;14.768;2024-03-08T06:57:41;99761.31;;;5.57;100.00
46876;BME280;32866;50.160;14.768;2024-03-08T07:00:07;99764.59;;;7.10;100.00
46876;BME280;32866;50.160;14.768;2024-03-08T07:02:35;99760.84;;;7.96;100.00
46876;BME280;32866;50.160;14.768;2024-03-08T07:05:01;99763.41;;;8.34;100.00
46876;BME280;32866;50.160;14.768;2024-03-08T07:07:27;99760.25;;;8.86;100.00
46876;BME280;32866;50.160;14.768;2024-03-08T07:09:53;99755.84;;;9.16;100.00
46876;BME280;32866;50.160;14.768;2024-03-08T07:12:20;99733.47;;;9.21;100.00
46876;BME280;32866;50.160;14.768;2024-03-08T07:14:46;99760.75;;;9.45;100.00
46876;BME280;32866;50.160;14.768;2024-03-08T07:17:12;99769.53;;;9.36;100.00
46876;BME280;32866;50.160;14.768;2024-03-08T07:19:38;99773.47;;;8.91;100.00
46876;BME280;32866;50.160;14.768;2024-03-08T07:22:05;99720.22;;;8.29;100.00
46876;BME280;32866;50.160;14.768;2024-03-08T07:24:35;99750.25;;;9.23;100.00
46876;BME280;32866;50.160;14.768;2024-03-08T07:27:19;99704.59;;;9.77;100.00
46876;BME280;32866;50.160;14.768;2024-03-08T07:29:45;99752.75;;;10.93;100.00
46876;BME280;32866;50.160;14.768;2024-03-08T07:32:11;99702.91;;;10.82;100.00
46876;BME280;32866;50.160;14.768;2024-03-08T07:34:45;99741.34;;;11.53;100.00
46876;BME280;32866;50.160;14.768;2024-03-08T07:37:11;99698.44;;;11.72;92.04
46876;BME280;32866;50.160;14.768;2024-03-08T07:39:38;99745.38;;;13.12;85.90
46876;BME280;32866;50.160;14.768;2024-03-08T07:42:04;99711.22;;;13.98;67.83
46876;BME280;32866;50.160;14.768;2024-03-08T07:44:30;99742.38;;;14.26;64.64
46876;BME280;32866;50.160;14.768;2024-03-08T07:46:58;99694.13;;;13.81;62.41
46876;BME280;32866;50.160;14.768;2024-03-08T07:49:24;99694.84;;;14.03;59.33
46876;BME280;32866;50.160;14.768;2024-03-08T07:51:50;99724.25;;;14.06;59.05
46876;BME280;32866;50.160;14.768;2024-03-08T07:54:17;99701.91;;;14.04;57.89
46876;BME280;32866;50.160;14.768;2024-03-08T07:56:43;99737.34;;;14.24;58.16
46876;BME280;32866;50.160;14.768;2024-03-08T07:59:09;99728.72;;;14.22;57.92
46876;BME280;32866;50.160;14.768;2024-03-08T08:01:37;99720.38;;;14.35;57.31
46876;BME280;32866;50.160;14.768;2024-03-08T08:04:03;99733.63;;;14.77;56.27
46876;BME280;32866;50.160;14.768;2024-03-08T08:06:30;99697.47;;;14.94;54.35
46876;BME280;32866;50.160;14.768;2024-03-08T08:09:00;99722.41;;;15.36;54.35
46876;BME280;32866;50.160;14.768;2024-03-08T08:11:27;99726.84;;;15.43;52.52
46876;BME280;32866;50.160;14.768;2024-03-08T08:13:54;99718.91;;;15.08;51.42
46876;BME280;32866;50.160;14.768;2024-03-08T08:16:22;99725.78;;;15.31;51.39
46876;BME280;32866;50.160;14.768;2024-03-08T08:18:48;99709.09;;;14.79;51.55
46876;BME280;32866;50.160;14.768;2024-03-08T08:21:14;99708.66;;;14.13;54.27
46876;BME280;32866;50.160;14.768;2024-03-08T08:23:40;99676.91;;;12.70;57.04
46876;BME280;32866;50.160;14.768;2024-03-08T08:26:06;99724.09;;;13.03;57.48
46876;BME280;32866;50.160;14.768;2024-03-08T08:28:33;99716.72;;;11.49;63.30
46876;BME280;32866;50.160;14.768;2024-03-08T08:30:59;99723.38;;;11.65;62.99
46876;BME280;32866;50.160;14.768;2024-03-08T08:33:25;99715.16;;;11.91;63.47
46876;BME280;32866;50.160;14.768;2024-03-08T08:35:51;99706.47;;;11.66;64.69
46876;BME280;32866;50.160;14.768;2024-03-08T08:38:19;99708.97;;;11.19;65.57
46876;BME280;32866;50.160;14.768;2024-03-08T08:40:45;99715.75;;;11.14;65.62
46876;BME280;32866;50.160;14.768;2024-03-08T08:43:13;99710.13;;;13.32;60.77
46876;BME280;32866;50.160;14.768;2024-03-08T08:45:39;99698.69;;;15.20;54.33
46876;BME280;32866;50.160;14.768;2024-03-08T08:48:05;99702.22;;;15.73;52.04
46876;BME280;32866;50.160;14.768;2024-03-08T08:50:31;99707.25;;;15.32;51.95
46876;BME280;32866;50.160;14.768;2024-03-08T08:52:57;99699.59;;;15.27;51.28
46876;BME280;32866;50.160;14.768;2024-03-08T08:55:24;99700.78;;;13.92;53.70
46876;BME280;32866;50.160;14.768;2024-03-08T08:57:52;99695.16;;;13.65;56.83
46876;BME280;32866;50.160;14.768;2024-03-08T09:00:21;99688.69;;;13.99;56.08
46876;BME280;32866;50.160;14.768;2024-03-08T09:02:49;99694.72;;;13.66;55.67
46876;BME280;32866;50.160;14.768;2024-03-08T09:05:16;99687.44;;;13.82;54.76
46876;BME280;32866;50.160;14.768;2024-03-08T09:07:45;99686.28;;;13.39;57.60
46876;BME280;32866;50.160;14.768;2024-03-08T09:10:11;99688.78;;;11.67;60.39
46876;BME280;32866;50.160;14.768;2024-03-08T09:12:38;99681.94;;;10.75;64.79
46876;BME280;32866;50.160;14.768;2024-03-08T09:15:05;99691.97;;;10.82;65.11
46876;BME280;32866;50.160;14.768;2024-03-08T09:17:37;99682.22;;;12.03;62.02
46876;BME280;32866;50.160;14.768;2024-03-08T09:20:08;99677.88;;;10.96;64.09
46876;BME280;32866;50.160;14.768;2024-03-08T09:22:43;99672.59;;;11.44;65.16
46876;BME280;32866;50.160;14.768;2024-03-08T09:25:09;99678.38;;;12.01;62.62
46876;BME280;32866;50.160;14.768;2024-03-08T09:27:35;99672.25;;;11.16;64.17
46876;BME280;32866;50.160;14.768;2024-03-08T09:30:01;99672.81;;;11.49;65.13
46876;BME280;32866;50.160;14.768;2024-03-08T09:32:27;99662.94;;;11.39;66.10
46876;BME280;32866;50.160;14.768;2024-03-08T09:34:53;99672.69;;;12.78;62.61
46876;BME280;32866;50.160;14.768;2024-03-08T09:37:19;99655.38;;;14.06;58.39
46876;BME280;32866;50.160;14.768;2024-03-08T09:39:45;99658.19;;;13.75;56.26
46876;BME280;32866;50.160;14.768;2024-03-08T09:42:11;99654.94;;;14.08;55.36
46876;BME280;32866;50.160;14.768;2024-03-08T09:44:46;99663.56;;;12.46;59.76
46876;BME280;32866;50.160;14.768;2024-03-08T09:47:15;99655.34;;;12.33;60.35
46876;BME280;32866;50.160;14.768;2024-03-08T09:49:42;99656.59;;;12.89;60.82
46876;BME280;32866;50.160;14.768;2024-03-08T09:52:09;99659.91;;;12.14;60.12
46876;BME280;32866;50.160;14.768;2024-03-08T09:54:36;99666.50;;;12.52;60.44
46876;BME280;32866;50.160;14.768;2024-03-08T09:57:06;99620.09;;;12.32;61.22
46876;BME280;32866;50.160;14.768;2024-03-08T09:59:33;99642.22;;;12.15;60.89
46876;BME280;32866;50.160;14.768;2024-03-08T10:02:02;99647.78;;;12.24;62.54
46876;BME280;32866;50.160;14.768;2024-03-08T10:04:28;99623.84;;;13.04;59.73
46876;BME280;32866;50.160;14.768;2024-03-08T10:06:57;99628.91;;;13.59;57.30
46876;BME280;32866;50.160;14.768;2024-03-08T10:09:25;99632.38;;;13.91;56.12
46876;BME280;32866;50.160;14.768;2024-03-08T10:11:56;99634.88;;;13.58;58.19
46876;BME280;32866;50.160;14.768;2024-03-08T10:14:22;99635.22;;;14.37;56.70
46876;BME280;32866;50.160;14.768;2024-03-08T10:16:47;99607.44;;;15.15;52.94
46876;BME280;32866;50.160;14.768;2024-03-08T10:19:14;99636.78;;;14.94;53.12
46876;BME280;32866;50.160;14.768;2024-03-08T10:21:52;99595.97;;;13.96;53.77
46876;BME280;32866;50.160;14.768;2024-03-08T10:24:23;99627.19;;;13.93;54.83
46876;BME280;32866;50.160;14.768;2024-03-08T10:27:01;99624.88;;;13.29;55.03
46876;BME280;32866;50.160;14.768;2024-03-08T10:29:32;99597.50;;;12.94;57.83
46876;BME280;32866;50.160;14.768;2024-03-08T10:31:58;99586.38;;;12.75;57.78
46876;BME280;32866;50.160;14.768;2024-03-08T10:34:24;99619.81;;;13.18;56.27
46876;BME280;32866;50.160;14.768;2024-03-08T10:36:51;99623.97;;;13.23;58.02
46876;BME280;32866;50.160;14.768;2024-03-08T10:41:45;99616.03;;;13.56;56.48
46876;BME280;32866;50.160;14.768;2024-03-08T10:44:32;99597.91;;;13.36;57.24
46876;BME280;32866;50.160;14.768;2024-03-08T10:47:26;99613.19;;;14.46;54.71
46876;BME280;32866;50.160;14.768;2024-03-08T10:50:09;99600.22;;;15.27;51.65
46876;BME280;32866;50.160;14.768;2024-03-08T10:52:38;99606.31;;;16.31;50.02
46876;BME280;32866;50.160;14.768;2024-03-08T10:55:07;99582.78;;;15.87;48.42
46876;BME280;32866;50.160;14.768;2024-03-08T10:57:38;99548.63;;;15.42;50.12
46876;BME280;32866;50.160;14.768;2024-03-08T11:02:44;99587.03;;;16.61;50.20
46876;BME280;32866;50.160;14.768;2024-03-08T11:05:10;99585.13;;;17.41;48.50
46876;BME280;32866;50.160;14.768;2024-03-08T11:07:45;99578.50;;;17.54;46.60
46876;BME280;32866;50.160;14.768;2024-03-08T11:10:20;99567.78;;;17.26;45.61
46876;BME280;32866;50.160;14.768;2024-03-08T11:12:46;99578.84;;;17.11;47.23
46876;BME280;32866;50.160;14.768;2024-03-08T11:15:14;99572.38;;;16.99;47.46
46876;BME280;32866;50.160;14.768;2024-03-08T11:17:44;99538.22;;;16.33;47.65
46876;BME280;32866;50.160;14.768;2024-03-08T11:20:11;99569.84;;;16.72;49.26
46876;BME280;32866;50.160;14.768;2024-03-08T11:25:32;99557.94;;;17.96;46.21
46876;BME280;32866;50.160;14.768;2024-03-08T11:30:33;99547.09;;;17.77;46.36
46876;BME280;32866;50.160;14.768;2024-03-08T11:33:02;99542.41;;;17.13;46.53
46876;BME280;32866;50.160;14.768;2024-03-08T11:35:29;99539.91;;;17.15;47.35
46876;BME280;32866;50.160;14.768;2024-03-08T11:37:57;99540.44;;;17.34;46.79
46876;BME280;32866;50.160;14.768;2024-03-08T11:40:24;99535.38;;;17.32;47.72
46876;BME280;32866;50.160;14.768;2024-03-08T11:42:50;99536.09;;;16.97;47.81
46876;BME280;32866;50.160;14.768;2024-03-08T11:45:18;99534.75;;;15.85;49.60
46876;BME280;32866;50.160;14.768;2024-03-08T11:47:47;99525.25;;;15.52;52.40
46876;BME280;32866;50.160;14.768;2024-03-08T11:50:14;99476.84;;;15.90;50.65
46876;BME280;32866;50.160;14.768;2024-03-08T11:52:40;99527.63;;;15.02;53.47
46876;BME280;32866;50.160;14.768;2024-03-08T11:55:06;99470.31;;;14.08;55.35
46876;BME280;32866;50.160;14.768;2024-03-08T11:57:33;99497.19;;;14.78;52.93
46876;BME280;32866;50.160;14.768;2024-03-08T11:59:59;99514.88;;;14.06;55.58
46876;BME280;32866;50.160;14.768;2024-03-08T12:02:34;99502.84;;;12.29;61.32
46876;BME280;32866;50.160;14.768;2024-03-08T12:05:04;99518.53;;;11.20;66.37
46876;BME280;32866;50.160;14.768;2024-03-08T12:07:35;99502.34;;;10.70;69.42
46876;BME280;32866;50.160;14.768;2024-03-08T12:10:21;99513.13;;;10.77;70.64
46876;BME280;32866;50.160;14.768;2024-03-08T12:12:55;99504.81;;;9.93;73.79
46876;BME280;32866;50.160;14.768;2024-03-08T12:15:23;99510.81;;;9.39;77.19
46876;BME280;32866;50.160;14.768;2024-03-08T12:17:52;99499.88;;;9.39;79.19
46876;BME280;32866;50.160;14.768;2024-03-08T12:20:25;99500.69;;;10.01;80.10
46876;BME280;32866;50.160;14.768;2024-03-08T12:22:52;99503.59;;;11.46;71.38
46876;BME280;32866;50.160;14.768;2024-03-08T12:25:19;99490.81;;;12.57;66.68
46876;BME280;32866;50.160;14.768;2024-03-08T12:27:46;99483.00;;;14.24;62.44
46876;BME280;32866;50.160;14.768;2024-03-08T12:32:50;99468.44;;;15.03;56.85
46876;BME280;32866;50.160;14.768;2024-03-08T12:35:23;99431.59;;;13.75;59.03
46876;BME280;32866;50.160;14.768;2024-03-08T12:37:52;99484.28;;;12.95;61.99
46876;BME280;32866;50.160;14.768;2024-03-08T12:40:18;99485.56;;;12.28;66.28
46876;BME280;32866;50.160;14.768;2024-03-08T12:42:44;99477.84;;;11.66;68.32
46876;BME280;32866;50.160;14.768;2024-03-08T12:45:15;99473.66;;;11.01;70.99
46876;BME280;32866;50.160;14.768;2024-03-08T12:47:41;99473.44;;;12.16;69.12
46876;BME280;32866;50.160;14.768;2024-03-08T12:50:10;99471.47;;;13.02;63.71
46876;BME280;32866;50.160;14.768;2024-03-08T12:52:36;99417.25;;;12.39;64.15
46876;BME280;32866;50.160;14.768;2024-03-08T12:55:02;99417.69;;;13.01;64.48
46876;BME280;32866;50.160;14.768;2024-03-08T12:57:28;99458.63;;;14.41;58.43
46876;BME280;32866;50.160;14.768;2024-03-08T12:59:54;99452.84;;;13.55;60.18